Seaexpressii — HO4619 — position and weather

sailwx.info

Track history (hours):
 
Tides and Currents Weather Stations Pressure Air Temp Water Temp Dewpoint Dewpoint Depression Visibility Wind Speed Wind Dir Waves Ship Positions

Seaexpressii

Last reported at 2017-Jan-20 04:33 UTC. Time now 2017-Jan-20 20:07 UTC.
Position N 25°59' W 079°42'.

Length 37 m; draft 2.2 m.

Type: Ship (hazmat cat C). MMSI: 356449000.

Date/timePositionNaut miles runAvg speedWind from/ knotsBaromVisibWave heightAir tempDewpointWater temp
2017-Jan-20 04:33N 25°59' W 079°42'9 9.3
2017-Jan-20 03:33N 26°02' W 079°52'8 8.5
2017-Jan-20 02:34N 26°05' W 080°01'6 6.0
2017-Jan-20 01:34N 26°04' W 080°08'0 0.1
2017-Jan-20 00:33N 26°04' W 080°08'0 0.0
2017-Jan-19 23:33N 26°04' W 080°08'0 0.0
2017-Jan-19 22:33N 26°04' W 080°08'0 0.4
2017-Jan-19 21:33N 26°04' W 080°07'7 7.4
2017-Jan-19 20:33N 26°05' W 079°59'1010.2
2017-Jan-19 19:33N 26°05' W 079°48'1010.2
2017-Jan-19 18:33N 26°05' W 079°37'9 0.7
2017-Jan-19 05:21N 26°15' W 079°35'810.1
2017-Jan-19 04:33N 26°12' W 079°44'1010.1
2017-Jan-19 03:33N 26°09' W 079°54'10 9.6
2017-Jan-19 02:34N 26°05' W 080°04'4 3.6
2017-Jan-19 01:33N 26°04' W 080°08'0 0.0
2017-Jan-19 00:33N 26°04' W 080°08'0 0.0
2017-Jan-18 23:34N 26°04' W 080°08'0 0.0
2017-Jan-18 22:34N 26°04' W 080°08'0 0.1
2017-Jan-18 21:33N 26°04' W 080°08'0 0.0
2017-Jan-18 20:33N 26°04' W 080°08'0 0.0
2017-Jan-18 19:34N 26°04' W 080°08'0 0.0
2017-Jan-18 18:33N 26°04' W 080°08'0 0.0
2017-Jan-18 17:33N 26°04' W 080°08'0 0.0
2017-Jan-18 16:33N 26°04' W 080°08'0 0.0
2017-Jan-18 15:33N 26°04' W 080°08'0 0.0
2017-Jan-18 14:33N 26°04' W 080°08'0 0.0
2017-Jan-18 13:33N 26°04' W 080°08'0 0.0
2017-Jan-18 12:33N 26°04' W 080°08'0 0.0
2017-Jan-18 11:33N 26°04' W 080°08'0 0.0
2017-Jan-18 10:34N 26°04' W 080°08'0 0.0
2017-Jan-18 09:33N 26°04' W 080°08'0 0.0
2017-Jan-18 08:34N 26°04' W 080°08'0 0.0
2017-Jan-18 07:34N 26°04' W 080°08'0 0.0
2017-Jan-18 06:34N 26°04' W 080°08'0 0.0
2017-Jan-18 05:33N 26°04' W 080°08'0 0.0
2017-Jan-18 04:33N 26°04' W 080°08'0 0.0
2017-Jan-18 03:33N 26°04' W 080°08'0 0.0
2017-Jan-18 02:33N 26°04' W 080°08'0 0.0
2017-Jan-18 01:33N 26°04' W 080°08'0 0.0
2017-Jan-18 00:33N 26°04' W 080°08'0 0.0
2017-Jan-17 23:33N 26°04' W 080°08'0 0.0
2017-Jan-17 22:33N 26°04' W 080°08'0 0.0
2017-Jan-17 21:33N 26°04' W 080°08'0 0.0
2017-Jan-17 20:34N 26°04' W 080°08'0 0.0
2017-Jan-17 19:34N 26°04' W 080°08'0 0.0
2017-Jan-17 18:33N 26°04' W 080°08'0 0.1
2017-Jan-17 17:34N 26°04' W 080°08'0 0.0
2017-Jan-17 16:34N 26°04' W 080°08'0 0.0
2017-Jan-17 15:34N 26°04' W 080°08'0 0.0
2017-Jan-17 14:33N 26°04' W 080°08'0 0.0
2017-Jan-17 13:33N 26°04' W 080°08'0 0.0
2017-Jan-17 12:33N 26°04' W 080°08'0 0.0
2017-Jan-17 11:33N 26°04' W 080°08'0 0.0
2017-Jan-17 10:33N 26°04' W 080°08'0 0.0
2017-Jan-17 09:33N 26°04' W 080°08'0 0.0
2017-Jan-17 08:33N 26°04' W 080°08'0 0.0
2017-Jan-17 07:33N 26°04' W 080°08'0 0.0
2017-Jan-17 06:34N 26°04' W 080°08'0 0.0
2017-Jan-17 05:34N 26°04' W 080°08'0 0.0
2017-Jan-17 04:34N 26°04' W 080°08'0 0.0
2017-Jan-17 03:34N 26°04' W 080°08'0 0.0
2017-Jan-17 02:33N 26°04' W 080°08'0 0.0
2017-Jan-17 01:34N 26°04' W 080°08'0 0.0
2017-Jan-17 00:33N 26°04' W 080°08'0 0.0
2017-Jan-16 23:33N 26°04' W 080°08'0 0.0
2017-Jan-16 22:33N 26°04' W 080°08'0 0.0
2017-Jan-16 21:33N 26°04' W 080°08'0 0.0
2017-Jan-16 20:33N 26°04' W 080°08'0 0.0
2017-Jan-16 19:33N 26°04' W 080°08'0 0.0
2017-Jan-16 18:33N 26°04' W 080°08'0 0.0
2017-Jan-16 17:33N 26°04' W 080°08'0 0.0
2017-Jan-16 16:33N 26°04' W 080°08'0 0.0
2017-Jan-16 15:33N 26°04' W 080°08'0 0.0
2017-Jan-16 14:34N 26°04' W 080°08'0 0.1
2017-Jan-16 13:33N 26°04' W 080°08'0 0.0
2017-Jan-16 12:33N 26°04' W 080°08'3 3.2
2017-Jan-16 11:34N 26°05' W 080°05'3 3.2
2017-Jan-16 10:33N 26°05' W 080°01'4 3.7
2017-Jan-16 09:33N 26°02' W 079°58'4 4.0
2017-Jan-16 08:33N 26°00' W 079°54'4 4.0
2017-Jan-16 07:33N 25°58' W 079°50'4 3.5
2017-Jan-16 06:33N 25°57' W 079°47'4 4.5
2017-Jan-16 05:33N 25°54' W 079°43'4 4.5
2017-Jan-16 04:33N 25°51' W 079°39'2 0.1
2017-Jan-14 10:33N 25°51' W 079°36'7 7.0
2017-Jan-14 09:33N 25°55' W 079°43'7 6.6
2017-Jan-14 08:33N 25°58' W 079°50'7 6.6
2017-Jan-14 07:34N 26°01' W 079°56'7 7.0
2017-Jan-14 06:33N 26°04' W 080°03'5 4.6
2017-Jan-14 05:34N 26°04' W 080°08'0 0.0
2017-Jan-14 04:33N 26°04' W 080°08'0 0.0
2017-Jan-14 03:34N 26°04' W 080°08'1 0.3
2017-Jan-13 23:33N 26°04' W 080°07'9 8.8
2017-Jan-13 22:33N 26°05' W 079°57'1010.1
2017-Jan-13 21:33N 26°06' W 079°46'13 0.9
2017-Jan-13 06:33N 26°15' W 079°35'8 8.3
2017-Jan-13 05:33N 26°12' W 079°44'9 8.8
2017-Jan-13 04:34N 26°09' W 079°53'10 9.5
2017-Jan-13 03:33N 26°06' W 080°03'4 4.5
2017-Jan-13 02:33N 26°04' W 080°08'0 0.0
2017-Jan-13 01:33N 26°04' W 080°08'0 0.0
2017-Jan-13 00:34N 26°04' W 080°08'0 0.0
2017-Jan-12 23:33N 26°04' W 080°08'0 0.0
2017-Jan-12 22:33N 26°04' W 080°08'0 0.0
2017-Jan-12 21:33N 26°04' W 080°08'0 0.0
2017-Jan-12 20:33N 26°04' W 080°08'0 0.0
2017-Jan-12 19:33N 26°04' W 080°08'0 0.0
2017-Jan-12 18:33N 26°04' W 080°08'0 0.0
2017-Jan-12 17:33N 26°04' W 080°08'0 0.0
2017-Jan-12 16:34N 26°04' W 080°08'0 0.0
2017-Jan-12 15:34N 26°04' W 080°08'0 0.0
2017-Jan-12 14:34N 26°04' W 080°08'0 0.0
2017-Jan-12 13:33N 26°04' W 080°08'0 0.0
2017-Jan-12 12:33N 26°04' W 080°08'4 3.6
2017-Jan-12 11:33N 26°05' W 080°04'4 4.3
2017-Jan-12 10:34N 26°04' W 079°60'9 9.0
2017-Jan-12 09:33N 26°02' W 079°50'  
Track history (hours):
 
Tides and Currents Weather Stations Pressure Air Temp Water Temp Dewpoint Dewpoint Depression Visibility Wind Speed Wind Dir Waves Ship Positions

Seaexpressii

Last reported at 2017-Jan-20 04:33 UTC. Time now 2017-Jan-20 20:07 UTC.
Position N 25°59' W 079°42'.

Length 37 m; draft 2.2 m.

Type: Ship (hazmat cat C). MMSI: 356449000.

Date/timePositionNaut miles runAvg speedWind from/ knotsBaromVisibWave heightAir tempDewpointWater temp
2017-Jan-20 04:33N 25°59' W 079°42'9 9.3
2017-Jan-20 03:33N 26°02' W 079°52'8 8.5
2017-Jan-20 02:34N 26°05' W 080°01'6 6.0
2017-Jan-20 01:34N 26°04' W 080°08'0 0.1
2017-Jan-20 00:33N 26°04' W 080°08'0 0.0
2017-Jan-19 23:33N 26°04' W 080°08'0 0.0
2017-Jan-19 22:33N 26°04' W 080°08'0 0.4
2017-Jan-19 21:33N 26°04' W 080°07'7 7.4
2017-Jan-19 20:33N 26°05' W 079°59'1010.2
2017-Jan-19 19:33N 26°05' W 079°48'1010.2
2017-Jan-19 18:33N 26°05' W 079°37'9 0.7
2017-Jan-19 05:21N 26°15' W 079°35'810.1
2017-Jan-19 04:33N 26°12' W 079°44'1010.1
2017-Jan-19 03:33N 26°09' W 079°54'10 9.6
2017-Jan-19 02:34N 26°05' W 080°04'4 3.6
2017-Jan-19 01:33N 26°04' W 080°08'0 0.0
2017-Jan-19 00:33N 26°04' W 080°08'0 0.0
2017-Jan-18 23:34N 26°04' W 080°08'0 0.0
2017-Jan-18 22:34N 26°04' W 080°08'0 0.1
2017-Jan-18 21:33N 26°04' W 080°08'0 0.0
2017-Jan-18 20:33N 26°04' W 080°08'0 0.0
2017-Jan-18 19:34N 26°04' W 080°08'0 0.0
2017-Jan-18 18:33N 26°04' W 080°08'0 0.0
2017-Jan-18 17:33N 26°04' W 080°08'0 0.0
2017-Jan-18 16:33N 26°04' W 080°08'0 0.0
2017-Jan-18 15:33N 26°04' W 080°08'0 0.0
2017-Jan-18 14:33N 26°04' W 080°08'0 0.0
2017-Jan-18 13:33N 26°04' W 080°08'0 0.0
2017-Jan-18 12:33N 26°04' W 080°08'0 0.0
2017-Jan-18 11:33N 26°04' W 080°08'0 0.0
2017-Jan-18 10:34N 26°04' W 080°08'0 0.0
2017-Jan-18 09:33N 26°04' W 080°08'0 0.0
2017-Jan-18 08:34N 26°04' W 080°08'0 0.0
2017-Jan-18 07:34N 26°04' W 080°08'0 0.0
2017-Jan-18 06:34N 26°04' W 080°08'0 0.0
2017-Jan-18 05:33N 26°04' W 080°08'0 0.0
2017-Jan-18 04:33N 26°04' W 080°08'0 0.0
2017-Jan-18 03:33N 26°04' W 080°08'0 0.0
2017-Jan-18 02:33N 26°04' W 080°08'0 0.0
2017-Jan-18 01:33N 26°04' W 080°08'0 0.0
2017-Jan-18 00:33N 26°04' W 080°08'0 0.0
2017-Jan-17 23:33N 26°04' W 080°08'0 0.0
2017-Jan-17 22:33N 26°04' W 080°08'0 0.0
2017-Jan-17 21:33N 26°04' W 080°08'0 0.0
2017-Jan-17 20:34N 26°04' W 080°08'0 0.0
2017-Jan-17 19:34N 26°04' W 080°08'0 0.0
2017-Jan-17 18:33N 26°04' W 080°08'0 0.1
2017-Jan-17 17:34N 26°04' W 080°08'0 0.0
2017-Jan-17 16:34N 26°04' W 080°08'0 0.0
2017-Jan-17 15:34N 26°04' W 080°08'0 0.0
2017-Jan-17 14:33N 26°04' W 080°08'0 0.0
2017-Jan-17 13:33N 26°04' W 080°08'0 0.0
2017-Jan-17 12:33N 26°04' W 080°08'0 0.0
2017-Jan-17 11:33N 26°04' W 080°08'0 0.0
2017-Jan-17 10:33N 26°04' W 080°08'0 0.0
2017-Jan-17 09:33N 26°04' W 080°08'0 0.0
2017-Jan-17 08:33N 26°04' W 080°08'0 0.0
2017-Jan-17 07:33N 26°04' W 080°08'0 0.0
2017-Jan-17 06:34N 26°04' W 080°08'0 0.0
2017-Jan-17 05:34N 26°04' W 080°08'0 0.0
2017-Jan-17 04:34N 26°04' W 080°08'0 0.0
2017-Jan-17 03:34N 26°04' W 080°08'0 0.0
2017-Jan-17 02:33N 26°04' W 080°08'0 0.0
2017-Jan-17 01:34N 26°04' W 080°08'0 0.0
2017-Jan-17 00:33N 26°04' W 080°08'0 0.0
2017-Jan-16 23:33N 26°04' W 080°08'0 0.0
2017-Jan-16 22:33N 26°04' W 080°08'0 0.0
2017-Jan-16 21:33N 26°04' W 080°08'0 0.0
2017-Jan-16 20:33N 26°04' W 080°08'0 0.0
2017-Jan-16 19:33N 26°04' W 080°08'0 0.0
2017-Jan-16 18:33N 26°04' W 080°08'0 0.0
2017-Jan-16 17:33N 26°04' W 080°08'0 0.0
2017-Jan-16 16:33N 26°04' W 080°08'0 0.0
2017-Jan-16 15:33N 26°04' W 080°08'0 0.0
2017-Jan-16 14:34N 26°04' W 080°08'0 0.1
2017-Jan-16 13:33N 26°04' W 080°08'0 0.0
2017-Jan-16 12:33N 26°04' W 080°08'3 3.2
2017-Jan-16 11:34N 26°05' W 080°05'3 3.2
2017-Jan-16 10:33N 26°05' W 080°01'4 3.7
2017-Jan-16 09:33N 26°02' W 079°58'4 4.0
2017-Jan-16 08:33N 26°00' W 079°54'4 4.0
2017-Jan-16 07:33N 25°58' W 079°50'4 3.5
2017-Jan-16 06:33N 25°57' W 079°47'4 4.5
2017-Jan-16 05:33N 25°54' W 079°43'4 4.5
2017-Jan-16 04:33N 25°51' W 079°39'2 0.1
2017-Jan-14 10:33N 25°51' W 079°36'7 7.0
2017-Jan-14 09:33N 25°55' W 079°43'7 6.6
2017-Jan-14 08:33N 25°58' W 079°50'7 6.6
2017-Jan-14 07:34N 26°01' W 079°56'7 7.0
2017-Jan-14 06:33N 26°04' W 080°03'5 4.6
2017-Jan-14 05:34N 26°04' W 080°08'0 0.0
2017-Jan-14 04:33N 26°04' W 080°08'0 0.0
2017-Jan-14 03:34N 26°04' W 080°08'1 0.3
2017-Jan-13 23:33N 26°04' W 080°07'9 8.8
2017-Jan-13 22:33N 26°05' W 079°57'1010.1
2017-Jan-13 21:33N 26°06' W 079°46'13 0.9
2017-Jan-13 06:33N 26°15' W 079°35'8 8.3
2017-Jan-13 05:33N 26°12' W 079°44'9 8.8
2017-Jan-13 04:34N 26°09' W 079°53'10 9.5
2017-Jan-13 03:33N 26°06' W 080°03'4 4.5
2017-Jan-13 02:33N 26°04' W 080°08'0 0.0
2017-Jan-13 01:33N 26°04' W 080°08'0 0.0
2017-Jan-13 00:34N 26°04' W 080°08'0 0.0
2017-Jan-12 23:33N 26°04' W 080°08'0 0.0
2017-Jan-12 22:33N 26°04' W 080°08'0 0.0
2017-Jan-12 21:33N 26°04' W 080°08'0 0.0
2017-Jan-12 20:33N 26°04' W 080°08'0 0.0
2017-Jan-12 19:33N 26°04' W 080°08'0 0.0
2017-Jan-12 18:33N 26°04' W 080°08'0 0.0
2017-Jan-12 17:33N 26°04' W 080°08'0 0.0
2017-Jan-12 16:34N 26°04' W 080°08'0 0.0
2017-Jan-12 15:34N 26°04' W 080°08'0 0.0
2017-Jan-12 14:34N 26°04' W 080°08'0 0.0
2017-Jan-12 13:33N 26°04' W 080°08'0 0.0
2017-Jan-12 12:33N 26°04' W 080°08'4 3.6
2017-Jan-12 11:33N 26°05' W 080°04'4 4.3
2017-Jan-12 10:34N 26°04' W 079°60'9 9.0
2017-Jan-12 09:33N 26°02' W 079°50'  

Dump ship's entire track history